JTE515 YBDG-YMML

Flight info

Callsign JTE515
Flight time 0h 28m
Altitude 13000
Route ARBEY
Aircraft RJ1H/M-SDFGIRWY/LB1

Departure

Time 2026-05-04 07:01
Airport Bendigo Airport (YBDG)

Arrival

Time 2026-05-04 07:30
Airport Melbourne Airport (YMML)
Time Latitude Longitude Altitude Speed Heading
2026-05-04 06:37 -36.73900 144.32677 684 ft 0 kts 318°
2026-05-04 06:55 -36.73898 144.32675 683 ft 2 kts 324°
2026-05-04 06:56 -36.73883 144.32696 685 ft 5 kts 59°
2026-05-04 06:57 -36.73792 144.33005 695 ft 15 kts 181°
2026-05-04 06:58 -36.73946 144.33000 697 ft 29 kts 181°
2026-05-04 06:58 -36.74130 144.32994 715 ft 23 kts 181°
2026-05-04 06:58 -36.74248 144.33011 718 ft 10 kts 156°
2026-05-04 06:58 -36.74273 144.32995 719 ft 3 kts 309°
2026-05-04 06:59 -36.74253 144.32988 720 ft 3 kts
2026-05-04 06:59 -36.74251 144.32988 720 ft 0 kts
2026-05-04 06:59 -36.74140 144.32991 715 ft 45 kts
2026-05-04 06:59 -36.73609 144.33014 683 ft 105 kts
2026-05-04 07:01 -36.69967 144.38003 3020 ft 213 kts 104°
2026-05-04 07:01 -36.70828 144.39485 3544 ft 213 kts 145°
2026-05-04 07:02 -36.71982 144.40652 3956 ft 223 kts 142°
2026-05-04 07:02 -36.73190 144.41908 4403 ft 230 kts 143°
2026-05-04 07:02 -36.74437 144.43204 4757 ft 243 kts 142°
2026-05-04 07:02 -36.75743 144.44673 5094 ft 257 kts 140°
2026-05-04 07:03 -36.77055 144.46187 5935 ft 257 kts 139°
2026-05-04 07:03 -36.78445 144.47586 6721 ft 257 kts 152°
2026-05-04 07:03 -36.79986 144.48700 7545 ft 257 kts 156°
2026-05-04 07:03 -36.81571 144.49760 8333 ft 260 kts 157°
2026-05-04 07:04 -36.83196 144.50813 9038 ft 266 kts 157°
2026-05-04 07:04 -36.84826 144.51863 9821 ft 269 kts 157°
2026-05-04 07:04 -36.86499 144.52938 10559 ft 271 kts 157°
2026-05-04 07:04 -36.88178 144.54018 11290 ft 273 kts 157°
2026-05-04 07:05 -36.89866 144.55121 12000 ft 275 kts 156°
2026-05-04 07:05 -36.91559 144.56248 12662 ft 278 kts 156°
2026-05-04 07:05 -36.93338 144.57433 12869 ft 301 kts 156°
2026-05-04 07:05 -36.95265 144.58705 12950 ft 325 kts 156°
2026-05-04 07:06 -36.99460 144.61508 12983 ft 349 kts 155°
2026-05-04 07:06 -37.01568 144.62924 12968 ft 348 kts 155°
2026-05-04 07:06 -37.03699 144.64362 12952 ft 347 kts 155°
2026-05-04 07:07 -37.05822 144.65792 12945 ft 346 kts 155°
2026-05-04 07:08 -37.21066 144.74532 11140 ft 324 kts 172°
2026-05-04 07:09 -37.23207 144.75103 10664 ft 304 kts 173°
2026-05-04 07:09 -37.25207 144.75606 10303 ft 295 kts 174°
2026-05-04 07:09 -37.27219 144.76101 10041 ft 295 kts 174°
2026-05-04 07:09 -37.29230 144.76603 9778 ft 294 kts 174°
2026-05-04 07:10 -37.31233 144.77109 9530 ft 293 kts 173°
2026-05-04 07:10 -37.33232 144.77619 9267 ft 293 kts 174°
2026-05-04 07:12 -37.47254 144.79163 7503 ft 281 kts 201°
2026-05-04 07:12 -37.49135 144.78501 7257 ft 280 kts 204°
2026-05-04 07:12 -37.50974 144.77736 7027 ft 278 kts 206°
2026-05-04 07:12 -37.52787 144.76910 6812 ft 277 kts 207°
2026-05-04 07:13 -37.54583 144.76042 6618 ft 275 kts 208°
2026-05-04 07:13 -37.56362 144.75166 6420 ft 275 kts 208°
2026-05-04 07:13 -37.58133 144.74282 6241 ft 273 kts 207°
2026-05-04 07:14 -37.65748 144.73325 6000 ft 277 kts 189°
2026-05-04 07:14 -37.67696 144.73228 5778 ft 282 kts 189°
2026-05-04 07:15 -37.69667 144.73233 5553 ft 284 kts 184°
2026-05-04 07:15 -37.71643 144.73381 5332 ft 284 kts 182°
2026-05-04 07:15 -37.73613 144.73548 5128 ft 283 kts 182°
2026-05-04 07:15 -37.75560 144.73731 5028 ft 279 kts 181°
2026-05-04 07:16 -37.77491 144.73911 5001 ft 278 kts 182°
2026-05-04 07:16 -37.79423 144.74097 4998 ft 278 kts 182°
2026-05-04 07:16 -37.81347 144.74289 4997 ft 279 kts 182°
2026-05-04 07:16 -37.83264 144.74476 4994 ft 279 kts 181°
2026-05-04 07:17 -37.85196 144.74670 4981 ft 278 kts 182°
2026-05-04 07:17 -37.87127 144.74871 4974 ft 279 kts 181°
2026-05-04 07:17 -37.89058 144.75066 4973 ft 278 kts 182°
2026-05-04 07:17 -37.90991 144.75257 4975 ft 279 kts 180°
2026-05-04 07:18 -37.92930 144.75438 4971 ft 280 kts 181°
2026-05-04 07:18 -37.94881 144.75605 4982 ft 282 kts 182°
2026-05-04 07:18 -37.96835 144.75778 4962 ft 280 kts 181°
2026-05-04 07:18 -37.98777 144.75955 4953 ft 280 kts 181°
2026-05-04 07:19 -38.00726 144.76140 4958 ft 282 kts 179°
2026-05-04 07:19 -38.02575 144.76962 4944 ft 285 kts 146°
2026-05-04 07:19 -38.03838 144.78838 4953 ft 281 kts 112°
2026-05-04 07:19 -38.04484 144.81132 4966 ft 281 kts 104°
2026-05-04 07:20 -38.05081 144.83488 4953 ft 280 kts 104°
2026-05-04 07:20 -38.05602 144.85860 4879 ft 280 kts 94°
2026-05-04 07:20 -38.05407 144.88259 4516 ft 270 kts 59°
2026-05-04 07:20 -38.04319 144.90053 4163 ft 249 kts 25°
2026-05-04 07:22 -37.94879 144.89096 3012 ft 154 kts 344°
2026-05-04 07:22 -37.93821 144.88856 2993 ft 155 kts 344°
2026-05-04 07:23 -37.92752 144.88625 2984 ft 156 kts 345°
2026-05-04 07:23 -37.91686 144.88399 2985 ft 155 kts 344°
2026-05-04 07:23 -37.90623 144.88180 2916 ft 157 kts 344°
2026-05-04 07:23 -37.89532 144.87948 2762 ft 160 kts 345°
2026-05-04 07:24 -37.88439 144.87721 2575 ft 159 kts 346°
2026-05-04 07:24 -37.87346 144.87510 2528 ft 158 kts 347°
2026-05-04 07:24 -37.86278 144.87310 2509 ft 157 kts 347°
2026-05-04 07:24 -37.85208 144.87110 2483 ft 154 kts 347°
2026-05-04 07:25 -37.84158 144.86916 2494 ft 150 kts 347°
2026-05-04 07:26 -37.78353 144.85910 2317 ft 116 kts 349°
2026-05-04 07:27 -37.77547 144.85824 2206 ft 120 kts 346°
2026-05-04 07:27 -37.76721 144.85660 2023 ft 124 kts 345°
2026-05-04 07:27 -37.75859 144.85473 1831 ft 127 kts 347°
2026-05-04 07:27 -37.74977 144.85323 1667 ft 127 kts 347°
2026-05-04 07:28 -37.74107 144.85170 1462 ft 127 kts 346°
2026-05-04 07:28 -37.73216 144.84934 1189 ft 135 kts 347°
2026-05-04 07:28 -37.72301 144.84746 1031 ft 136 kts 353°
2026-05-04 07:28 -37.71350 144.84601 836 ft 138 kts 350°
2026-05-04 07:29 -37.70416 144.84424 728 ft 134 kts 353°
2026-05-04 07:29 -37.69519 144.84259 578 ft 131 kts 354°
2026-05-04 07:29 -37.68609 144.84101 397 ft 133 kts 351°
2026-05-04 07:29 -37.67742 144.83937 360 ft 111 kts 354°
2026-05-04 07:30 -37.67126 144.83838 382 ft 59 kts 358°
2026-05-04 07:30 -37.66899 144.83882 389 ft 17 kts 20°
2026-05-04 07:30 -37.66820 144.83924 391 ft 7 kts 24°
2026-05-04 07:30 -37.66790 144.83940 392 ft 3 kts 22°
2026-05-04 07:31 -37.66761 144.83957 393 ft 6 kts 33°
2026-05-04 07:31 -37.66726 144.84018 393 ft 10 kts 73°
2026-05-04 07:33 -37.66972 144.84224 386 ft 0 kts 169°
2026-05-04 07:39 -37.66983 144.84227 386 ft 7 kts 168°
2026-05-04 07:39 -37.67051 144.84279 385 ft 13 kts 118°
2026-05-04 07:39 -37.67050 144.84381 387 ft 10 kts 81°
2026-05-04 07:39 -37.67026 144.84462 388 ft 9 kts 60°
2026-05-04 07:40 -37.67014 144.84548 390 ft 9 kts 85°
2026-05-04 07:40 -37.67007 144.84621 391 ft 8 kts 81°
2026-05-04 07:40 -37.67012 144.84669 391 ft 3 kts 171°
2026-05-04 07:40 -37.67044 144.84670 391 ft 5 kts 174°
2026-05-04 07:41 -37.67065 144.84674 390 ft 0 kts 171°